Time;durP1;ratioP1;P1;durP2;ratioP2;P2;SDS_P1;SDS_P2;PMS_P1;PMS_P2;Temp;Humidity;BMP_temperature;BMP_pressure;BME280_temperature;BME280_humidity;BME280_pressure;Samples;Min_cycle;Max_cycle;Signal;HPM_P1;HPM_P2
2021/10/20 00:02:05;;;;;;;23.32;11.83;;;;;;;-0.03;64.77;100542.70;1764209;80;21061;-66
2021/10/20 00:04:32;;;;;;;25.12;11.57;;;;;;;0.02;64.96;100535.47;1768197;80;21521;-66
2021/10/20 00:06:59;;;;;;;23.45;11.03;;;;;;;0.06;65.11;100546.98;1779834;80;21046;-65
2021/10/20 00:09:26;;;;;;;21.27;11.20;;;;;;;0.10;64.95;100550.95;1785702;80;21045;-67
2021/10/20 00:11:52;;;;;;;22.70;11.88;;;;;;;0.15;64.89;100549.03;1769400;80;21571;-67
2021/10/20 00:14:19;;;;;;;23.73;11.95;;;;;;;0.17;64.88;100547.02;1763124;80;20991;-66
2021/10/20 00:16:45;;;;;;;23.02;12.00;;;;;;;0.20;64.54;100544.80;1756027;80;21116;-66
2021/10/20 00:19:11;;;;;;;22.40;11.25;;;;;;;0.27;64.31;100551.08;1772214;80;20998;-66
2021/10/20 00:21:39;;;;;;;23.60;11.70;;;;;;;0.31;64.26;100544.34;1758986;80;21101;-66
2021/10/20 00:24:06;;;;;;;25.77;12.58;;;;;;;0.37;64.34;100536.06;1763257;80;20995;-67
2021/10/20 00:26:32;;;;;;;24.65;12.33;;;;;;;0.42;64.51;100529.14;1766500;80;21553;-67
2021/10/20 00:28:59;;;;;;;25.77;13.48;;;;;;;0.47;64.61;100526.71;1756421;80;22285;-67
2021/10/20 00:31:26;;;;;;;26.00;13.18;;;;;;;0.52;64.65;100519.97;1774984;80;21102;-66
2021/10/20 00:33:52;;;;;;;20.65;11.68;;;;;;;0.57;64.65;100526.41;1762469;80;20978;-66
2021/10/20 00:36:19;;;;;;;25.35;12.70;;;;;;;0.59;64.64;100514.18;1771263;80;21478;-65
2021/10/20 00:38:45;;;;;;;23.87;12.47;;;;;;;0.62;64.63;100518.65;1765878;80;20982;-66
2021/10/20 00:41:12;;;;;;;21.50;11.83;;;;;;;0.65;64.65;100508.05;1765922;80;21014;-66
2021/10/20 00:43:41;;;;;;;24.23;11.48;;;;;;;0.68;64.62;100511.19;1774299;80;20990;-66
2021/10/20 00:46:07;;;;;;;21.55;11.65;;;;;;;0.74;64.55;100502.92;1765585;80;21026;-66
2021/10/20 00:48:34;;;;;;;22.17;11.00;;;;;;;0.76;64.59;100498.19;1776244;80;21006;-67
2021/10/20 00:51:01;;;;;;;21.07;10.85;;;;;;;0.77;64.53;100498.52;1780563;80;20979;-66
2021/10/20 00:53:27;;;;;;;22.27;11.40;;;;;;;0.77;64.45;100492.65;1775811;80;21021;-67
2021/10/20 00:55:53;;;;;;;23.07;11.55;;;;;;;0.79;64.29;100489.76;1769125;80;21006;-66
2021/10/20 00:58:20;;;;;;;21.85;10.88;;;;;;;0.83;64.06;100497.75;1775418;80;21441;-67
2021/10/20 01:00:46;;;;;;;;;;;;;;;0.83;64.00;100493.22;1786891;80;21026;-67
2021/10/20 01:03:13;;;;;;;22.02;10.95;;;;;;;0.84;64.02;100500.75;1759079;80;20148;-67
2021/10/20 01:05:41;;;;;;;20.72;11.45;;;;;;;0.83;63.79;100503.94;1780274;80;21520;-66
2021/10/20 01:08:07;;;;;;;23.45;11.28;;;;;;;0.82;63.58;100494.73;1783627;80;20999;-66
2021/10/20 01:10:33;;;;;;;22.65;11.38;;;;;;;0.84;63.24;100502.93;1767405;80;21022;-66
2021/10/20 01:13:00;;;;;;;;;;;;;;;0.84;63.58;100499.41;1778370;80;21365;-67
2021/10/20 01:15:27;;;;;;;19.32;9.93;;;;;;;0.83;63.65;100503.11;1785900;80;20355;-67
2021/10/20 01:17:53;;;;;;;20.55;10.00;;;;;;;0.80;63.51;100502.98;1783657;80;21491;-66
2021/10/20 01:20:23;;;;;;;18.12;9.90;;;;;;;0.80;63.49;100495.45;1765743;80;21034;-66
2021/10/20 01:22:50;;;;;;;19.87;10.58;;;;;;;0.81;63.93;100499.80;1772049;80;20935;-67
2021/10/20 01:25:17;;;;;;;20.37;10.55;;;;;;;0.81;64.15;100507.84;1759574;80;21101;-66
2021/10/20 01:27:43;;;;;;;23.42;13.10;;;;;;;0.81;64.37;100501.14;1773079;80;21006;-67
2021/10/20 01:30:10;;;;;;;27.20;14.68;;;;;;;0.80;64.64;100504.33;1785950;80;20991;-66
2021/10/20 01:32:37;;;;;;;33.95;18.32;;;;;;;0.77;64.89;100493.98;1740527;80;21045;-66
2021/10/20 01:35:04;;;;;;;31.20;17.15;;;;;;;0.77;65.03;100491.81;1767679;80;21540;-66
2021/10/20 01:37:31;;;;;;;27.15;15.63;;;;;;;0.76;65.22;100486.96;1737062;82;21033;-67
2021/10/20 01:39:57;;;;;;;24.92;13.93;;;;;;;0.73;65.22;100477.97;1737534;80;20983;-67
2021/10/20 01:42:25;;;;;;;24.55;12.88;;;;;;;0.69;65.25;100482.55;1775185;80;20994;-66
2021/10/20 01:44:53;;;;;;;24.18;12.78;;;;;;;0.64;65.27;100483.64;1781201;80;21026;-67
2021/10/20 01:47:19;;;;;;;25.72;12.23;;;;;;;0.60;65.10;100493.08;1785122;80;21548;-67
2021/10/20 01:49:46;;;;;;;24.70;11.93;;;;;;;0.58;64.75;100494.59;1770366;80;21025;-66
2021/10/20 01:52:13;;;;;;;24.23;11.38;;;;;;;0.54;64.51;100498.66;1780132;80;21018;-66
2021/10/20 01:54:39;;;;;;;24.10;12.18;;;;;;;0.50;64.52;100498.20;1756724;80;21487;-66
2021/10/20 01:57:05;;;;;;;20.27;10.75;;;;;;;0.46;64.59;100494.23;1773694;80;21050;-66
2021/10/20 01:59:32;;;;;;;21.50;11.63;;;;;;;0.43;64.56;100487.92;1767589;80;20983;-66
2021/10/20 02:01:58;;;;;;;22.02;11.43;;;;;;;0.41;64.44;100494.49;1757669;80;21108;-66
2021/10/20 02:04:25;;;;;;;23.98;11.48;;;;;;;0.36;64.23;100497.73;1756319;80;21408;-66
2021/10/20 02:06:51;;;;;;;19.92;11.45;;;;;;;0.33;64.10;100491.91;1779721;80;21026;-66
2021/10/20 02:09:18;;;;;;;22.20;11.00;;;;;;;0.30;64.19;100495.80;1779152;80;21516;-66
2021/10/20 02:11:45;;;;;;;21.42;10.58;;;;;;;0.28;64.44;100490.33;1774449;80;21038;-66
2021/10/20 02:14:13;;;;;;;24.92;12.07;;;;;;;0.24;64.63;100487.19;1777689;80;21061;-66
2021/10/20 02:16:40;;;;;;;24.67;12.58;;;;;;;0.22;64.90;100491.88;1767501;80;20999;-66
2021/10/20 02:19:07;;;;;;;26.68;13.95;;;;;;;0.18;65.20;100485.23;1769848;80;20958;-67
2021/10/20 02:21:36;;;;;;;34.48;16.95;;;;;;;0.14;65.43;100480.46;1775544;80;21034;-67
2021/10/20 02:24:02;;;;;;;34.40;16.45;;;;;;;0.09;65.68;100486.36;1786662;80;21012;-68
2021/10/20 02:26:28;;;;;;;;;;;;;;;0.07;65.91;100479.04;1779533;80;21521;-67
2021/10/20 02:28:56;;;;;;;33.35;17.87;;;;;;;0.07;66.10;100475.02;1782612;80;20102;-67
2021/10/20 02:31:23;;;;;;;34.80;17.80;;;;;;;0.04;66.48;100481.27;1784502;80;21058;-67
2021/10/20 02:33:49;;;;;;;36.75;18.90;;;;;;;0.07;66.65;100483.05;1786035;80;20959;-68
2021/10/20 02:36:16;;;;;;;;;;;;;;;0.10;66.73;100480.00;1780005;80;21556;-67
2021/10/20 02:38:42;;;;;;;38.78;18.90;;;;;;;0.14;66.80;100485.31;1760923;80;20155;-67
2021/10/20 02:41:08;;;;;;;38.55;19.73;;;;;;;0.14;66.86;100486.66;1760470;80;21022;-67
2021/10/20 02:43:37;;;;;;;43.28;20.90;;;;;;;0.17;66.85;100490.80;1755896;80;21054;-67
2021/10/20 02:46:03;;;;;;;38.90;19.95;;;;;;;0.20;66.76;100486.41;1767170;80;21022;-67
2021/10/20 02:48:30;;;;;;;36.93;19.60;;;;;;;0.24;66.76;100482.34;1775846;80;21497;-66
2021/10/20 02:50:57;;;;;;;36.23;19.95;;;;;;;0.28;66.79;100491.16;1776597;80;20974;-66
2021/10/20 02:53:23;;;;;;;35.75;19.80;;;;;;;0.33;66.79;100495.93;1786093;80;21005;-66
2021/10/20 02:55:49;;;;;;;40.35;19.67;;;;;;;0.38;66.73;100493.53;1780436;80;21096;-66
2021/10/20 02:58:16;;;;;;;35.25;19.05;;;;;;;0.44;66.53;100496.79;1781015;80;21022;-66
2021/10/20 03:00:42;;;;;;;35.70;19.42;;;;;;;0.52;66.39;100502.55;1758417;80;21019;-66
2021/10/20 03:03:09;;;;;;;31.93;16.90;;;;;;;0.58;66.12;100496.43;1773252;81;21513;-66
2021/10/20 03:05:36;;;;;;;34.60;18.42;;;;;;;0.66;66.07;100499.84;1764922;81;21135;-66
2021/10/20 03:08:03;;;;;;;35.10;17.98;;;;;;;0.72;66.28;100494.22;1752992;81;20986;-66
2021/10/20 03:10:31;;;;;;;39.90;20.00;;;;;;;0.78;66.38;100490.80;1744266;81;21031;-66
2021/10/20 03:12:57;;;;;;;;;;;;;;;0.82;66.38;100502.27;1770894;81;21027;-65
2021/10/20 03:15:24;;;;;;;33.78;18.10;;;;;;;0.88;66.31;100506.89;1776906;81;20137;-66
2021/10/20 03:17:51;;;;;;;36.90;20.62;;;;;;;0.91;66.22;100511.04;1777167;81;21066;-65
2021/10/20 03:20:18;;;;;;;40.75;20.50;;;;;;;0.97;66.24;100505.73;1775030;80;21059;-65
2021/10/20 03:22:45;;;;;;;34.45;19.32;;;;;;;1.06;66.28;100501.59;1756262;81;21477;-65
2021/10/20 03:25:12;;;;;;;32.60;18.42;;;;;;;1.13;66.22;100497.96;1763450;81;21074;-65
2021/10/20 03:27:45;;;;;;;35.65;18.95;;;;;;;1.22;66.12;100507.52;1751307;81;21039;-66
2021/10/20 03:30:12;;;;;;;35.00;18.80;;;;;;;1.27;65.95;100506.45;1756789;81;21588;-65
2021/10/20 03:32:39;;;;;;;38.15;19.52;;;;;;;1.30;65.86;100514.61;1769381;81;21439;-67
2021/10/20 03:35:06;;;;;;;31.25;17.67;;;;;;;1.32;65.93;100505.34;1759381;81;21109;-64
2021/10/20 03:37:32;;;;;;;31.85;17.70;;;;;;;1.35;66.13;100502.27;1748282;81;21034;-65
2021/10/20 03:39:59;;;;;;;32.67;17.67;;;;;;;1.38;66.33;100503.21;1771467;81;20995;-65
2021/10/20 03:42:26;;;;;;;;;;;;;;;1.41;66.50;100502.86;1763802;80;21497;-65
2021/10/20 03:44:52;;;;;;;37.93;18.05;;;;;;;1.43;66.63;100496.77;1763036;81;20671;-65
2021/10/20 03:47:19;;;;;;;38.35;19.90;;;;;;;1.41;66.78;100493.97;1762867;81;21054;-66
2021/10/20 03:49:47;;;;;;;37.78;20.50;;;;;;;1.40;66.89;100488.28;1777481;81;20975;-66
2021/10/20 03:52:13;;;;;;;42.05;21.93;;;;;;;1.37;66.83;100487.33;1777829;81;21010;-66
2021/10/20 03:54:40;;;;;;;;;;;;;;;1.36;66.92;100489.69;1768522;81;20991;-68
2021/10/20 03:57:06;;;;;;;38.83;21.07;;;;;;;1.36;67.08;100489.17;1764614;81;20091;-66
2021/10/20 03:59:32;;;;;;;40.63;20.80;;;;;;;1.35;67.30;100494.22;1779296;80;21006;-66
2021/10/20 04:01:59;;;;;;;38.92;20.92;;;;;;;1.37;67.40;100493.53;1771271;80;21553;-66
2021/10/20 04:04:25;;;;;;;37.50;20.85;;;;;;;1.43;67.45;100492.74;1766861;80;21006;-66
2021/10/20 04:06:53;;;;;;;38.23;21.48;;;;;;;1.47;67.46;100487.31;1752204;80;21101;-67
2021/10/20 04:09:20;;;;;;;35.48;19.12;;;;;;;1.53;67.49;100478.98;1776603;80;21042;-66
2021/10/20 04:11:46;;;;;;;33.18;17.65;;;;;;;1.57;67.36;100470.02;1767954;80;21552;-67
2021/10/20 04:14:12;;;;;;;30.90;16.93;;;;;;;1.62;67.13;100462.23;1767471;80;21006;-66
2021/10/20 04:16:39;;;;;;;30.15;15.30;;;;;;;1.67;67.03;100445.00;1779173;80;21027;-66
2021/10/20 04:19:05;;;;;;;28.05;15.08;;;;;;;1.74;66.81;100429.77;1760160;80;21449;-64
2021/10/20 04:21:32;;;;;;;24.77;13.10;;;;;;;1.81;66.63;100418.55;1781034;80;21066;-65
2021/10/20 04:23:59;;;;;;;27.45;13.13;;;;;;;1.89;66.34;100435.34;1776836;80;21021;-65
2021/10/20 04:26:25;;;;;;;22.45;12.93;;;;;;;1.99;66.03;100438.48;1778576;80;21482;-66
2021/10/20 04:28:52;;;;;;;;;;;;;;;2.08;65.80;100432.95;1755719;80;20967;-67
2021/10/20 04:31:18;;;;;;;20.40;11.30;;;;;;;2.17;65.53;100427.72;1758429;80;20100;-66
2021/10/20 04:33:45;;;;;;;19.60;10.88;;;;;;;2.17;65.42;100427.20;1739426;80;20967;-67
2021/10/20 04:36:11;;;;;;;22.00;11.63;;;;;;;2.26;65.13;100423.33;1765882;80;20971;-66
2021/10/20 04:38:39;;;;;;;21.15;11.33;;;;;;;2.36;64.78;100425.12;1753583;80;21011;-67
2021/10/20 04:41:05;;;;;;;19.73;10.15;;;;;;;2.47;64.40;100439.31;1756445;80;21100;-66
2021/10/20 04:43:32;;;;;;;18.92;10.40;;;;;;;2.56;64.17;100432.39;1767079;80;21042;-66
2021/10/20 04:45:58;;;;;;;19.65;9.90;;;;;;;2.63;63.90;100432.72;1759992;80;21006;-67
2021/10/20 04:48:24;;;;;;;21.27;11.33;;;;;;;2.66;63.63;100418.88;1762667;80;21679;-66
2021/10/20 04:50:51;;;;;;;17.30;9.95;;;;;;;2.71;63.43;100412.38;1781487;80;21046;-67
2021/10/20 04:53:17;;;;;;;17.37;10.13;;;;;;;2.71;63.26;100416.41;1779317;80;21080;-67
2021/10/20 04:55:45;;;;;;;18.15;10.38;;;;;;;2.74;63.12;100427.27;1781509;80;21517;-66
2021/10/20 04:58:12;;;;;;;21.82;10.23;;;;;;;2.77;63.11;100417.44;1743118;80;21011;-67
2021/10/20 05:00:38;;;;;;;19.90;11.10;;;;;;;2.81;63.02;100416.00;1777118;79;21050;-65
2021/10/20 05:03:11;;;;;;;18.90;10.72;;;;;;;2.81;63.05;100417.34;1731887;82;21059;-65
2021/10/20 05:05:38;;;;;;;20.27;11.00;;;;;;;2.83;63.00;100413.44;1721958;83;21051;-66
2021/10/20 05:09:31;;;;;;;18.40;10.23;;;;;;;2.93;63.02;100413.03;1816386;79;23376;-65
2021/10/20 05:11:58;;;;;;;18.75;10.20;;;;;;;2.88;63.04;100405.57;1745385;80;21062;-65
2021/10/20 05:14:26;;;;;;;18.75;10.23;;;;;;;2.92;62.98;100410.86;1763864;81;21065;-66
2021/10/20 05:16:54;;;;;;;22.80;11.28;;;;;;;2.99;62.94;100404.96;1739104;81;21576;-65
2021/10/20 05:19:21;;;;;;;15.93;9.68;;;;;;;3.06;62.86;100408.99;1746508;81;21086;-66
2021/10/20 05:21:48;;;;;;;16.67;10.43;;;;;;;3.15;62.93;100407.77;1748551;81;21063;-67
2021/10/20 05:24:14;;;;;;;16.95;10.03;;;;;;;3.22;62.90;100405.08;1750992;81;21109;-66
2021/10/20 05:26:41;;;;;;;17.52;10.50;;;;;;;3.29;62.90;100409.93;1733168;83;21102;-66
2021/10/20 05:29:07;;;;;;;18.67;10.50;;;;;;;3.36;62.95;100418.31;1733730;83;21098;-66
2021/10/20 05:31:34;;;;;;;17.67;10.48;;;;;;;3.45;63.00;100418.39;1758907;81;21117;-66
2021/10/20 05:34:00;;;;;;;19.50;11.00;;;;;;;3.53;62.92;100420.56;1764001;81;21053;-66
2021/10/20 05:36:26;;;;;;;16.75;10.03;;;;;;;3.60;62.83;100421.38;1763842;79;21062;-66
2021/10/20 05:38:53;;;;;;;17.77;10.08;;;;;;;3.69;62.81;100425.48;1763794;81;21410;-66
2021/10/20 05:41:19;;;;;;;18.65;10.80;;;;;;;3.75;62.73;100417.94;1746392;79;21687;-66
2021/10/20 05:43:46;;;;;;;15.40;9.73;;;;;;;3.84;62.60;100410.75;1733630;83;21086;-66
2021/10/20 05:46:12;;;;;;;19.07;10.48;;;;;;;3.96;62.51;100410.93;1701082;84;21129;-66
2021/10/20 05:48:38;;;;;;;19.17;11.28;;;;;;;4.04;62.41;100407.98;1695952;83;21031;-66
2021/10/20 05:54:28;;;;;;;15.98;9.53;;;;;;;4.28;62.19;100402.41;1801360;79;22875;-66
2021/10/20 05:56:55;;;;;;;19.55;11.65;;;;;;;4.30;62.31;100397.61;1725577;82;21016;-65
2021/10/20 05:59:23;;;;;;;19.62;11.30;;;;;;;4.43;62.30;100392.14;1752325;82;21081;-66
2021/10/20 06:01:50;;;;;;;19.27;11.35;;;;;;;4.49;62.41;100388.09;1753000;82;21573;-65
2021/10/20 06:04:20;;;;;;;21.07;12.20;;;;;;;4.53;62.66;100387.66;1752980;82;21078;-65
2021/10/20 06:06:46;;;;;;;22.87;12.95;;;;;;;4.59;62.98;100380.03;1752904;82;21027;-66
2021/10/20 06:09:13;;;;;;;23.10;12.93;;;;;;;4.67;63.28;100375.22;1735147;82;21046;-65
2021/10/20 06:11:39;;;;;;;21.48;12.13;;;;;;;4.74;63.50;100373.83;1723145;83;21075;-66
2021/10/20 06:14:06;;;;;;;19.55;12.23;;;;;;;4.81;63.73;100372.73;1723192;83;21592;-66
2021/10/20 06:16:36;;;;;;;22.02;13.65;;;;;;;4.91;63.95;100374.42;1722878;83;21074;-66
2021/10/20 06:19:04;;;;;;;26.37;14.53;;;;;;;4.97;64.24;100373.53;1733797;82;21035;-66
2021/10/20 06:21:30;;;;;;;24.57;14.58;;;;;;;5.03;64.64;100379.39;1747853;81;21632;-67
2021/10/20 06:23:57;;;;;;;23.87;14.45;;;;;;;5.09;65.04;100366.91;1752971;81;21026;-66
2021/10/20 06:26:24;;;;;;;24.70;14.30;;;;;;;5.17;65.29;100365.80;1752888;82;21035;-67
2021/10/20 06:28:50;;;;;;;25.57;14.10;;;;;;;5.27;65.47;100355.33;1728462;82;21537;-66
2021/10/20 06:31:17;;;;;;;25.00;14.33;;;;;;;5.42;65.47;100355.25;1718486;82;21070;-66
2021/10/20 06:33:43;;;;;;;20.00;13.53;;;;;;;5.56;65.59;100352.44;1723076;83;21038;-66
2021/10/20 06:36:32;;;;;;;25.45;15.43;;;;;;;5.71;65.74;100348.82;1723054;83;21707;-66
2021/10/20 06:38:59;;;;;;;22.60;14.75;;;;;;;5.85;65.76;100357.90;1724893;82;21569;-66
2021/10/20 06:41:26;;;;;;;26.65;15.10;;;;;;;6.00;65.96;100346.74;1724473;82;21121;-66
2021/10/20 06:43:52;;;;;;;22.25;14.75;;;;;;;6.21;66.04;100335.44;1753137;82;21066;-67
2021/10/20 06:46:20;;;;;;;24.90;15.08;;;;;;;6.52;65.98;100334.37;1748695;82;21031;-66
2021/10/20 06:48:47;;;;;;;24.18;15.30;;;;;;;6.84;65.60;100337.62;1722957;83;21112;-66
2021/10/20 06:51:14;;;;;;;21.90;15.75;;;;;;;7.11;65.46;100343.44;1722607;83;21070;-66
2021/10/20 06:53:41;;;;;;;25.05;15.13;;;;;;;7.33;65.13;100332.33;1723377;83;21070;-66
2021/10/20 06:56:08;;;;;;;23.98;16.02;;;;;;;7.47;64.85;100333.17;1723659;83;21059;-67
2021/10/20 06:58:35;;;;;;;;;;;;;;;7.56;64.67;100330.94;1728380;82;21030;-67
2021/10/20 07:01:03;;;;;;;23.47;14.33;;;;;;;7.67;64.68;100330.62;1724111;83;20164;-66
2021/10/20 07:03:30;;;;;;;21.80;14.55;;;;;;;7.75;64.69;100327.03;1723882;83;21781;-66
2021/10/20 07:05:57;;;;;;;19.98;14.47;;;;;;;7.85;64.46;100329.95;1732099;82;21000;-67
2021/10/20 07:08:24;;;;;;;22.42;15.32;;;;;;;7.90;64.28;100334.09;1725624;82;21023;-66
2021/10/20 07:10:50;;;;;;;23.45;14.75;;;;;;;7.93;64.20;100320.09;1753284;82;21121;-67
2021/10/20 07:13:17;;;;;;;21.42;15.50;;;;;;;7.96;64.19;100320.96;1753083;82;21050;-67
2021/10/20 07:15:44;;;;;;;;;;;;;;;7.94;64.25;100319.00;1754561;82;21042;-67
2021/10/20 07:18:11;;;;;;;21.12;13.80;;;;;;;7.99;64.41;100321.00;1723406;82;20188;-67
2021/10/20 07:20:38;;;;;;;22.10;15.03;;;;;;;8.03;64.61;100323.53;1723705;82;21050;-66
2021/10/20 07:23:04;;;;;;;;;;;;;;;8.15;64.71;100323.50;1726033;83;21903;-66
2021/10/20 07:25:31;;;;;;;20.60;14.15;;;;;;;8.26;64.92;100320.72;1734806;82;20134;-66
2021/10/20 07:27:57;;;;;;;22.17;14.38;;;;;;;8.36;65.01;100324.20;1750503;82;21521;-66
2021/10/20 07:30:23;;;;;;;20.55;14.35;;;;;;;8.56;64.97;100326.45;1753316;82;21039;-67
2021/10/20 07:32:50;;;;;;;20.55;13.70;;;;;;;8.80;64.68;100324.72;1753475;82;21601;-66
2021/10/20 07:35:16;;;;;;;18.60;13.10;;;;;;;9.12;64.33;100301.87;1746788;82;21061;-66
2021/10/20 07:37:43;;;;;;;20.72;14.47;;;;;;;9.44;63.59;100309.69;1723220;83;21506;-67
2021/10/20 07:40:12;;;;;;;17.15;12.82;;;;;;;9.67;63.15;100299.67;1696566;83;21097;-66
2021/10/20 07:42:42;;;;;;;20.17;15.13;;;;;;;9.86;62.79;100298.27;1723471;83;21058;-66
2021/10/20 07:45:09;;;;;;;18.52;13.65;;;;;;;10.06;62.49;100293.06;1744437;82;21074;-66
2021/10/20 07:47:36;;;;;;;;;;;;;;;10.27;62.20;100281.35;1756051;82;21491;-66
2021/10/20 07:50:04;;;;;;;20.63;15.27;;;;;;;10.49;61.94;100285.38;1753508;82;20154;-67
2021/10/20 07:52:33;;;;;;;21.55;15.28;;;;;;;10.60;61.35;100292.57;1753296;82;21073;-67
2021/10/20 07:54:59;;;;;;;20.85;15.95;;;;;;;10.68;60.96;100285.30;1739058;82;21011;-67
2021/10/20 07:57:28;;;;;;;21.33;16.32;;;;;;;10.73;60.68;100284.00;1729823;82;21008;-68
2021/10/20 07:59:54;;;;;;;20.35;14.93;;;;;;;10.89;60.71;100284.39;1752856;82;21514;-67
2021/10/20 08:02:21;;;;;;;20.62;15.45;;;;;;;11.22;60.31;100276.45;1753510;82;21022;-68
2021/10/20 08:04:48;;;;;;;21.85;15.80;;;;;;;11.55;59.72;100275.27;1725826;82;21043;-67
2021/10/20 08:07:15;;;;;;;20.60;15.55;;;;;;;11.87;58.94;100282.81;1727244;82;21051;-68
2021/10/20 08:09:42;;;;;;;18.48;15.05;;;;;;;12.15;58.31;100276.64;1740040;82;21046;-68
2021/10/20 08:12:09;;;;;;;19.42;14.98;;;;;;;12.54;58.35;100275.63;1729784;82;21498;-67
2021/10/20 08:14:41;;;;;;;18.35;15.05;;;;;;;13.00;57.16;100269.08;1743380;82;21050;-67
2021/10/20 08:17:08;;;;;;;19.52;14.53;;;;;;;13.28;55.66;100257.59;1731648;81;21099;-68
2021/10/20 08:19:36;;;;;;;19.02;14.68;;;;;;;13.41;55.20;100250.70;1723149;83;21094;-68
2021/10/20 08:22:02;;;;;;;;;;;;;;;13.46;54.89;100239.19;1725981;83;21082;-68
2021/10/20 08:24:29;;;;;;;15.90;12.68;;;;;;;13.57;55.16;100237.23;1731392;82;20126;-67
2021/10/20 08:26:55;;;;;;;19.85;15.40;;;;;;;13.67;55.23;100237.22;1743210;82;21597;-68
2021/10/20 08:29:22;;;;;;;21.87;14.53;;;;;;;13.96;54.79;100222.28;1735276;82;21054;-68
2021/10/20 08:31:48;;;;;;;17.70;15.03;;;;;;;14.16;53.90;100230.40;1723294;83;21429;-68
2021/10/20 08:34:15;;;;;;;16.82;13.90;;;;;;;14.28;53.73;100225.92;1723073;83;21078;-65
2021/10/20 08:36:41;;;;;;;16.40;12.78;;;;;;;14.46;53.59;100221.16;1742458;82;21082;-66
2021/10/20 08:39:08;;;;;;;21.05;14.87;;;;;;;14.79;53.61;100214.05;1752924;82;21071;-66
2021/10/20 08:41:34;;;;;;;;;;;;;;;15.22;52.83;100211.71;1731198;82;21593;-67
2021/10/20 08:44:01;;;;;;;18.05;13.93;;;;;;;15.60;51.31;100205.80;1723354;83;20136;-68
2021/10/20 08:46:28;;;;;;;20.57;15.60;;;;;;;15.59;50.64;100206.91;1734538;82;21019;-68
2021/10/20 08:48:54;;;;;;;18.07;13.85;;;;;;;15.64;50.25;100206.03;1735184;82;21047;-67
2021/10/20 08:51:23;;;;;;;18.77;14.38;;;;;;;15.54;49.81;100201.50;1723265;83;21059;-67
2021/10/20 08:53:50;;;;;;;17.60;13.68;;;;;;;15.35;50.35;100213.75;1723339;83;21592;-66
2021/10/20 08:56:18;;;;;;;17.95;14.28;;;;;;;15.29;50.55;100208.62;1748608;82;21039;-66
2021/10/20 08:58:45;;;;;;;17.77;14.35;;;;;;;15.19;50.48;100205.44;1753163;82;21051;-67
2021/10/20 09:01:12;;;;;;;18.07;13.88;;;;;;;15.09;51.04;100209.63;1753020;82;21154;-67
2021/10/20 09:03:38;;;;;;;18.02;13.35;;;;;;;15.27;51.41;100202.59;1750435;81;21577;-67
2021/10/20 09:06:05;;;;;;;16.77;14.40;;;;;;;15.63;50.84;100192.05;1734913;82;21052;-66
2021/10/20 09:08:44;;;;;;;;;;;;;;;16.01;50.17;100190.17;1726051;82;21086;-66
2021/10/20 09:11:35;;;;;;;17.90;13.50;;;;;;;16.38;49.22;100192.34;1723219;83;20117;-67
2021/10/20 09:14:06;;;;;;;16.95;13.68;;;;;;;16.60;48.42;100185.42;1731557;82;21034;-66
2021/10/20 09:16:36;;;;;;;17.05;13.48;;;;;;;16.85;47.64;100172.62;1752950;82;21023;-66
2021/10/20 09:19:17;;;;;;;15.55;12.80;;;;;;;17.00;47.04;100170.97;1753290;82;21085;-67
2021/10/20 09:21:59;;;;;;;18.40;13.60;;;;;;;17.13;46.38;100169.34;1752921;82;21663;-67
2021/10/20 09:24:36;;;;;;;19.60;14.03;;;;;;;16.94;46.64;100158.41;1744577;82;21082;-65
2021/10/20 09:27:03;;;;;;;18.85;14.18;;;;;;;16.93;47.09;100154.61;1723391;82;21078;-66
2021/10/20 09:29:32;;;;;;;16.02;13.62;;;;;;;16.84;46.37;100146.23;1638935;85;21034;-66
2021/10/20 09:31:59;;;;;;;17.25;13.58;;;;;;;16.51;47.10;100144.61;1723152;83;21067;-65
2021/10/20 09:34:37;;;;;;;18.30;14.25;;;;;;;16.25;47.72;100149.70;1747573;82;21054;-66
2021/10/20 09:37:05;;;;;;;14.90;12.80;;;;;;;16.17;48.36;100147.62;1752129;82;21106;-67
2021/10/20 09:39:31;;;;;;;16.37;13.98;;;;;;;16.12;48.52;100152.63;1752877;82;21042;-66
2021/10/20 09:42:12;;;;;;;18.00;13.60;;;;;;;16.19;48.91;100142.08;1752740;82;21094;-67
2021/10/20 09:44:50;;;;;;;19.55;12.53;;;;;;;16.31;48.46;100136.95;1720057;83;21015;-65
2021/10/20 09:47:17;;;;;;;19.62;13.35;;;;;;;16.30;48.91;100137.24;1727315;82;21067;-66
2021/10/20 09:49:54;;;;;;;16.20;12.05;;;;;;;16.24;48.46;100132.41;1725134;82;21046;-67
2021/10/20 09:52:22;;;;;;;23.80;13.55;;;;;;;16.10;48.63;100128.78;1723137;83;21034;-66
2021/10/20 09:54:49;;;;;;;18.05;13.55;;;;;;;15.97;49.13;100121.86;1723270;83;21563;-66
2021/10/20 09:57:17;;;;;;;15.50;12.55;;;;;;;15.91;49.35;100116.44;1737160;82;20999;-63
2021/10/20 09:59:45;;;;;;;15.10;12.33;;;;;;;15.85;49.74;100114.06;1724276;82;21498;-66
2021/10/20 10:02:11;;;;;;;18.75;13.65;;;;;;;15.78;49.75;100113.62;1752967;82;21031;-66
2021/10/20 10:04:39;;;;;;;19.70;14.10;;;;;;;15.67;49.92;100112.95;1752861;82;21525;-66
2021/10/20 10:07:06;;;;;;;21.30;13.55;;;;;;;15.54;49.79;100117.81;1753140;82;21110;-64
2021/10/20 10:09:33;;;;;;;18.52;13.43;;;;;;;15.37;50.38;100127.06;1719297;83;21545;-64
2021/10/20 10:12:06;;;;;;;16.62;13.43;;;;;;;15.24;50.94;100104.44;1722573;83;21071;-66
2021/10/20 10:14:40;;;;;;;18.75;13.72;;;;;;;15.16;50.97;100110.02;1685547;85;21037;-65
2021/10/20 10:17:06;;;;;;;17.77;13.38;;;;;;;15.09;51.60;100101.91;1722639;83;21584;-64
2021/10/20 10:19:35;;;;;;;18.82;13.68;;;;;;;15.03;51.80;100105.25;1734931;82;21016;-65
2021/10/20 10:22:21;;;;;;;20.35;13.40;;;;;;;15.02;51.83;100091.27;1741673;82;21054;-65
2021/10/20 10:24:48;;;;;;;16.75;12.78;;;;;;;15.01;51.89;100095.14;1750505;82;21078;-65
2021/10/20 10:27:14;;;;;;;20.20;14.33;;;;;;;14.98;51.79;100096.28;1753417;82;20996;-65
2021/10/20 10:29:54;;;;;;;;;;;;;;;14.94;51.83;100084.53;1755702;82;21100;-65
2021/10/20 10:32:22;;;;;;;20.25;12.88;;;;;;;14.93;52.08;100076.04;1732236;82;20153;-67
2021/10/20 10:34:50;;;;;;;19.12;13.03;;;;;;;14.88;52.40;100066.48;1751314;82;21078;-66
2021/10/20 10:37:27;;;;;;;17.40;12.53;;;;;;;14.97;52.21;100061.19;1750839;82;21542;-64
2021/10/20 10:39:54;;;;;;;17.52;12.07;;;;;;;15.03;51.98;100063.30;1753276;82;21054;-65
2021/10/20 10:42:36;;;;;;;19.80;12.98;;;;;;;15.06;52.03;100047.63;1751306;82;20967;-65
2021/10/20 10:45:12;;;;;;;14.75;11.48;;;;;;;15.13;51.98;100053.58;1723314;83;21654;-67
2021/10/20 10:48:06;;;;;;;16.90;12.30;;;;;;;15.22;51.87;100044.42;1728410;82;21458;-64
2021/10/20 10:50:49;;;;;;;18.65;12.28;;;;;;;15.29;51.45;100029.79;1738728;82;21421;-67
2021/10/20 10:53:31;;;;;;;16.25;12.10;;;;;;;15.36;51.34;100029.42;1695676;83;20995;-68
2021/10/20 10:56:16;;;;;;;16.62;12.18;;;;;;;15.44;51.11;100026.02;1723351;83;21584;-68
2021/10/20 10:58:58;;;;;;;17.00;12.03;;;;;;;15.49;50.87;100027.33;1752356;82;21612;-68
2021/10/20 11:01:47;;;;;;;14.20;11.80;;;;;;;15.51;50.90;100013.33;1727356;82;21486;-66
2021/10/20 11:04:29;;;;;;;21.80;12.37;;;;;;;15.51;50.89;100015.52;1753069;82;21063;-66
2021/10/20 11:06:56;;;;;;;16.70;12.00;;;;;;;15.52;50.59;100009.48;1751982;82;21021;-65
2021/10/20 11:09:32;;;;;;;13.90;10.82;;;;;;;15.57;50.69;100005.27;1753163;82;21070;-65
2021/10/20 11:12:03;;;;;;;15.80;11.60;;;;;;;15.65;50.74;99979.91;1753273;82;21522;-66
2021/10/20 11:14:31;;;;;;;14.28;10.68;;;;;;;15.69;50.16;99985.87;1752929;82;21007;-66
2021/10/20 11:17:10;;;;;;;16.00;9.70;;;;;;;15.69;50.21;99982.31;1750967;82;21070;-64
2021/10/20 11:19:38;;;;;;;15.98;9.90;;;;;;;15.70;50.26;99986.11;1723352;83;21086;-63
2021/10/20 11:22:04;;;;;;;12.53;9.60;;;;;;;15.71;50.39;99982.81;1723338;83;21043;-65
2021/10/20 11:24:34;;;;;;;;;;;;;;;15.76;50.00;99978.63;1725789;83;21074;-65
2021/10/20 11:27:05;;;;;;;12.20;9.23;;;;;;;15.77;49.90;99966.51;1740608;82;20114;-66
2021/10/20 11:29:44;;;;;;;14.25;9.38;;;;;;;15.75;49.98;99972.87;1753057;82;21078;-65